VKG048 EKRN-LGSK
Flight info
| Callsign | VKG048 |
|---|---|
| Flight time | 2h 30m |
| Altitude | 35000 |
| Route | ROE DCT KOLOB DCT BEDAM DCT DOSAL DCT DENKO L616 DESEN DCT SAGAN DCT PARAK/N0450F370 DCT IRGOR DCT IBISI DCT MAKED UL617 IBIDI |
| Aircraft | A321/M-SDE3FGHIRWY/LB1 |
Departure
| Time | 2026-05-09 07:26 |
|---|---|
| Airport | Bornholm Airport (EKRN) |
Arrival
| Time | 2026-05-09 09:56 |
|---|---|
| Airport | Skiathos Island National Airport (LGSK) |
| Time | Latitude | Longitude | Altitude | Speed | Heading |
|---|---|---|---|---|---|
| 2026-05-09 06:50 | 55.06900 | 14.74825 | 57 ft | 0 kts | 115° |
| 2026-05-09 06:51 | 55.06902 | 14.74786 | 60 ft | 6 kts | 84° |
| 2026-05-09 06:53 | 55.06905 | 14.74836 | 59 ft | 0 kts | 115° |
| 2026-05-09 07:20 | 55.06889 | 14.74866 | 56 ft | 6 kts | 152° |
| 2026-05-09 07:21 | 55.06859 | 14.74837 | 57 ft | 7 kts | 242° |
| 2026-05-09 07:21 | 55.06870 | 14.74720 | 53 ft | 10 kts | 257° |
| 2026-05-09 07:21 | 55.06847 | 14.74671 | 56 ft | 1 kts | 221° |
| 2026-05-09 07:21 | 55.06846 | 14.74670 | 56 ft | 0 kts | 221° |
| 2026-05-09 07:22 | 55.06844 | 14.74667 | 56 ft | 3 kts | 221° |
| 2026-05-09 07:22 | 55.06804 | 14.74601 | 57 ft | 8 kts | 233° |
| 2026-05-09 07:22 | 55.06787 | 14.74549 | 57 ft | 0 kts | 239° |
| 2026-05-09 07:24 | 55.06787 | 14.74548 | 62 ft | 1 kts | 239° |
| 2026-05-09 07:24 | 55.06744 | 14.74478 | 57 ft | 11 kts | 213° |
| 2026-05-09 07:24 | 55.06708 | 14.74464 | 59 ft | 3 kts | 150° |
| 2026-05-09 07:24 | 55.06700 | 14.74485 | 52 ft | 1 kts | 116° |
| 2026-05-09 07:25 | 55.06700 | 14.74488 | 53 ft | 1 kts | 116° |
| 2026-05-09 07:25 | 55.06633 | 14.74744 | 62 ft | 60 kts | 113° |
| 2026-05-09 07:25 | 55.06365 | 14.75808 | 58 ft | 128 kts | 114° |
| 2026-05-09 07:25 | 55.05934 | 14.77504 | 226 ft | 163 kts | 113° |
| 2026-05-09 07:26 | 55.05463 | 14.79288 | 898 ft | 160 kts | 110° |
| 2026-05-09 07:26 | 55.05020 | 14.81027 | 1694 ft | 156 kts | 112° |
| 2026-05-09 07:26 | 55.04351 | 14.82558 | 2214 ft | 175 kts | 147° |
| 2026-05-09 07:26 | 55.03083 | 14.83066 | 2458 ft | 200 kts | 171° |
| 2026-05-09 07:27 | 55.01628 | 14.83403 | 2606 ft | 223 kts | 169° |
| 2026-05-09 07:27 | 55.00000 | 14.83830 | 2936 ft | 248 kts | 168° |
| 2026-05-09 07:27 | 54.98269 | 14.84301 | 3827 ft | 254 kts | 168° |
| 2026-05-09 07:27 | 54.96514 | 14.84788 | 4789 ft | 257 kts | 169° |
| 2026-05-09 07:28 | 54.94730 | 14.85294 | 5744 ft | 262 kts | 169° |
| 2026-05-09 07:28 | 54.92916 | 14.85814 | 6641 ft | 267 kts | 170° |
| 2026-05-09 07:28 | 54.91069 | 14.86345 | 7486 ft | 271 kts | 170° |
| 2026-05-09 07:28 | 54.89195 | 14.86882 | 8377 ft | 274 kts | 169° |
| 2026-05-09 07:29 | 54.87301 | 14.87429 | 9244 ft | 278 kts | 169° |
| 2026-05-09 07:29 | 54.85376 | 14.87983 | 10099 ft | 283 kts | 168° |
| 2026-05-09 07:29 | 54.83405 | 14.88553 | 10666 ft | 297 kts | 168° |
| 2026-05-09 07:29 | 54.81285 | 14.89170 | 10919 ft | 320 kts | 169° |
| 2026-05-09 07:30 | 54.79040 | 14.89819 | 11406 ft | 333 kts | 169° |
| 2026-05-09 07:30 | 54.76733 | 14.90482 | 12126 ft | 339 kts | 169° |
| 2026-05-09 07:30 | 54.74388 | 14.91154 | 12863 ft | 344 kts | 170° |
| 2026-05-09 07:30 | 54.72004 | 14.91837 | 13626 ft | 350 kts | 171° |
| 2026-05-09 07:31 | 54.69562 | 14.92533 | 14345 ft | 354 kts | 171° |
| 2026-05-09 07:31 | 54.67144 | 14.93222 | 15009 ft | 358 kts | 171° |
| 2026-05-09 07:31 | 54.64670 | 14.93930 | 15680 ft | 363 kts | 171° |
| 2026-05-09 07:31 | 54.62152 | 14.94648 | 16320 ft | 369 kts | 171° |
| 2026-05-09 07:32 | 54.59610 | 14.95367 | 17026 ft | 372 kts | 171° |
| 2026-05-09 07:32 | 54.57076 | 14.96080 | 17696 ft | 376 kts | 171° |
| 2026-05-09 07:32 | 54.54476 | 14.96813 | 18359 ft | 381 kts | 171° |
| 2026-05-09 07:32 | 54.51847 | 14.97558 | 18945 ft | 385 kts | 171° |
| 2026-05-09 07:33 | 54.49193 | 14.98311 | 19522 ft | 389 kts | 171° |
| 2026-05-09 07:33 | 54.43813 | 14.99838 | 20671 ft | 395 kts | 171° |
| 2026-05-09 07:33 | 54.41087 | 15.00614 | 21238 ft | 399 kts | 171° |
| 2026-05-09 07:34 | 54.38337 | 15.01393 | 21798 ft | 402 kts | 171° |
| 2026-05-09 07:34 | 54.35564 | 15.02172 | 22348 ft | 405 kts | 171° |
| 2026-05-09 07:34 | 54.32766 | 15.02953 | 22896 ft | 409 kts | 171° |
| 2026-05-09 07:34 | 54.29947 | 15.03738 | 23414 ft | 413 kts | 171° |
| 2026-05-09 07:35 | 54.27103 | 15.04529 | 23927 ft | 416 kts | 171° |
| 2026-05-09 07:35 | 54.24238 | 15.05331 | 24410 ft | 418 kts | 171° |
| 2026-05-09 07:35 | 54.21359 | 15.06142 | 24853 ft | 420 kts | 171° |
| 2026-05-09 07:35 | 54.18464 | 15.06959 | 25287 ft | 423 kts | 171° |
| 2026-05-09 07:36 | 54.15552 | 15.07776 | 25722 ft | 426 kts | 171° |
| 2026-05-09 07:36 | 54.12617 | 15.08590 | 26157 ft | 429 kts | 171° |
| 2026-05-09 07:36 | 54.09657 | 15.09408 | 26582 ft | 432 kts | 171° |
| 2026-05-09 07:36 | 54.06683 | 15.10230 | 26994 ft | 435 kts | 171° |
| 2026-05-09 07:37 | 54.03684 | 15.11057 | 27400 ft | 438 kts | 171° |
| 2026-05-09 07:37 | 54.00665 | 15.11887 | 27793 ft | 441 kts | 171° |
| 2026-05-09 07:37 | 53.97626 | 15.12727 | 28192 ft | 444 kts | 171° |
| 2026-05-09 07:37 | 53.94582 | 15.13563 | 28597 ft | 447 kts | 171° |
| 2026-05-09 07:38 | 53.91552 | 15.14395 | 28977 ft | 450 kts | 171° |
| 2026-05-09 07:38 | 53.88453 | 15.15249 | 29359 ft | 453 kts | 171° |
| 2026-05-09 07:38 | 53.85337 | 15.16109 | 29744 ft | 456 kts | 171° |
| 2026-05-09 07:38 | 53.82196 | 15.16977 | 30111 ft | 458 kts | 171° |
| 2026-05-09 07:39 | 53.79037 | 15.17844 | 30440 ft | 461 kts | 171° |
| 2026-05-09 07:39 | 53.75865 | 15.18740 | 30726 ft | 464 kts | 169° |
| 2026-05-09 07:39 | 53.72748 | 15.20189 | 31020 ft | 466 kts | 160° |
| 2026-05-09 07:39 | 53.69744 | 15.22298 | 31318 ft | 469 kts | 156° |
| 2026-05-09 07:40 | 53.66746 | 15.24489 | 31694 ft | 470 kts | 157° |
| 2026-05-09 07:40 | 53.63752 | 15.26669 | 32127 ft | 469 kts | 157° |
| 2026-05-09 07:40 | 53.60757 | 15.28839 | 32558 ft | 468 kts | 157° |
| 2026-05-09 07:40 | 53.58732 | 15.30303 | 32844 ft | 468 kts | 157° |
| 2026-05-09 07:41 | 53.55741 | 15.32461 | 33270 ft | 468 kts | 157° |
| 2026-05-09 07:41 | 53.52752 | 15.34617 | 33677 ft | 467 kts | 157° |
| 2026-05-09 07:41 | 53.49763 | 15.36771 | 34070 ft | 467 kts | 158° |
| 2026-05-09 07:41 | 53.46779 | 15.38923 | 34427 ft | 467 kts | 158° |
| 2026-05-09 07:42 | 53.43796 | 15.41067 | 34762 ft | 467 kts | 158° |
| 2026-05-09 07:42 | 53.40809 | 15.43212 | 35093 ft | 466 kts | 158° |
| 2026-05-09 07:42 | 53.37828 | 15.45347 | 35217 ft | 465 kts | 158° |
| 2026-05-09 07:43 | 53.31945 | 15.49552 | 35234 ft | 456 kts | 158° |
| 2026-05-09 07:43 | 53.26074 | 15.53735 | 35250 ft | 455 kts | 158° |
| 2026-05-09 07:44 | 53.20273 | 15.57857 | 35236 ft | 452 kts | 158° |
| 2026-05-09 07:44 | 53.14481 | 15.61961 | 35246 ft | 452 kts | 158° |
| 2026-05-09 07:45 | 53.08695 | 15.66055 | 35241 ft | 452 kts | 158° |
| 2026-05-09 07:45 | 53.02904 | 15.70135 | 35244 ft | 452 kts | 159° |
| 2026-05-09 07:46 | 52.97104 | 15.74193 | 35247 ft | 452 kts | 159° |
| 2026-05-09 07:46 | 52.91278 | 15.78280 | 35245 ft | 453 kts | 159° |
| 2026-05-09 07:47 | 52.85592 | 15.82247 | 35245 ft | 453 kts | 159° |
| 2026-05-09 07:47 | 52.79790 | 15.86279 | 35250 ft | 452 kts | 159° |
| 2026-05-09 07:48 | 52.74000 | 15.90298 | 35258 ft | 451 kts | 159° |
| 2026-05-09 07:48 | 52.68217 | 15.94298 | 35256 ft | 450 kts | 159° |
| 2026-05-09 07:49 | 52.62442 | 15.98292 | 35245 ft | 450 kts | 159° |
| 2026-05-09 07:49 | 52.56672 | 16.02266 | 35246 ft | 449 kts | 159° |
| 2026-05-09 07:50 | 52.50908 | 16.06226 | 35245 ft | 449 kts | 159° |
| 2026-05-09 07:50 | 52.45144 | 16.10161 | 35245 ft | 449 kts | 160° |
| 2026-05-09 07:51 | 52.39337 | 16.14119 | 35256 ft | 448 kts | 160° |
| 2026-05-09 07:51 | 52.33590 | 16.18032 | 35254 ft | 447 kts | 160° |
| 2026-05-09 07:52 | 52.27950 | 16.21868 | 35249 ft | 446 kts | 160° |
| 2026-05-09 07:52 | 52.22215 | 16.25747 | 35249 ft | 446 kts | 160° |
| 2026-05-09 07:53 | 52.16477 | 16.29615 | 35248 ft | 446 kts | 160° |
| 2026-05-09 07:53 | 52.10705 | 16.33493 | 35227 ft | 446 kts | 160° |
| 2026-05-09 07:54 | 52.04971 | 16.37348 | 35233 ft | 446 kts | 160° |
| 2026-05-09 07:54 | 51.99244 | 16.41185 | 35239 ft | 445 kts | 160° |
| 2026-05-09 07:55 | 51.93520 | 16.45007 | 35238 ft | 444 kts | 160° |
| 2026-05-09 07:55 | 51.87796 | 16.48813 | 35238 ft | 444 kts | 160° |
| 2026-05-09 07:56 | 51.82083 | 16.52594 | 35226 ft | 444 kts | 160° |
| 2026-05-09 07:56 | 51.76369 | 16.56366 | 35225 ft | 444 kts | 160° |
| 2026-05-09 07:57 | 51.70617 | 16.60171 | 35227 ft | 443 kts | 160° |
| 2026-05-09 07:57 | 51.64907 | 16.63931 | 35230 ft | 443 kts | 160° |
| 2026-05-09 07:58 | 51.59195 | 16.67689 | 35230 ft | 443 kts | 160° |
| 2026-05-09 07:58 | 51.53491 | 16.71428 | 35219 ft | 442 kts | 160° |
| 2026-05-09 07:59 | 51.47788 | 16.75149 | 35230 ft | 442 kts | 160° |
| 2026-05-09 07:59 | 51.42082 | 16.78853 | 35233 ft | 442 kts | 160° |
| 2026-05-09 08:00 | 51.36384 | 16.82545 | 35231 ft | 442 kts | 160° |
| 2026-05-09 08:00 | 51.30685 | 16.86238 | 35229 ft | 442 kts | 160° |
| 2026-05-09 08:01 | 51.24988 | 16.89917 | 35227 ft | 442 kts | 160° |
| 2026-05-09 08:01 | 51.19292 | 16.93586 | 35225 ft | 441 kts | 160° |
| 2026-05-09 08:02 | 51.13597 | 16.97247 | 35229 ft | 441 kts | 160° |
| 2026-05-09 08:02 | 51.07995 | 17.00833 | 35228 ft | 441 kts | 160° |
| 2026-05-09 08:03 | 51.02304 | 17.04476 | 35215 ft | 441 kts | 161° |
| 2026-05-09 08:03 | 50.96609 | 17.08107 | 35215 ft | 441 kts | 161° |
| 2026-05-09 08:04 | 50.90918 | 17.11710 | 35220 ft | 441 kts | 161° |
| 2026-05-09 08:04 | 50.85187 | 17.15342 | 35214 ft | 441 kts | 161° |
| 2026-05-09 08:05 | 50.79498 | 17.18947 | 35214 ft | 440 kts | 161° |
| 2026-05-09 08:05 | 50.73810 | 17.22538 | 35208 ft | 440 kts | 161° |
| 2026-05-09 08:06 | 50.68119 | 17.26113 | 35213 ft | 440 kts | 161° |
| 2026-05-09 08:06 | 50.63388 | 17.29074 | 35215 ft | 440 kts | 161° |
| 2026-05-09 08:07 | 50.57700 | 17.32639 | 35217 ft | 440 kts | 161° |
| 2026-05-09 08:07 | 50.52014 | 17.36182 | 35217 ft | 439 kts | 161° |
| 2026-05-09 08:08 | 50.46332 | 17.39722 | 35202 ft | 439 kts | 161° |
| 2026-05-09 08:08 | 50.40649 | 17.43257 | 35219 ft | 438 kts | 162° |
| 2026-05-09 08:09 | 50.34982 | 17.46765 | 35219 ft | 437 kts | 162° |
| 2026-05-09 08:09 | 50.29321 | 17.50257 | 35219 ft | 437 kts | 162° |
| 2026-05-09 08:10 | 50.23674 | 17.53982 | 35203 ft | 438 kts | 158° |
| 2026-05-09 08:10 | 50.18208 | 17.58238 | 35203 ft | 439 kts | 156° |
| 2026-05-09 08:11 | 50.12739 | 17.62635 | 35204 ft | 439 kts | 156° |
| 2026-05-09 08:11 | 50.07283 | 17.66879 | 35196 ft | 438 kts | 158° |
| 2026-05-09 08:12 | 49.99095 | 17.73088 | 35200 ft | 438 kts | 158° |
| 2026-05-09 08:12 | 49.93615 | 17.77225 | 35188 ft | 438 kts | 158° |
| 2026-05-09 08:13 | 49.88140 | 17.81373 | 35188 ft | 438 kts | 158° |
| 2026-05-09 08:13 | 49.82659 | 17.85525 | 35186 ft | 438 kts | 158° |
| 2026-05-09 08:14 | 49.77173 | 17.89660 | 35188 ft | 438 kts | 158° |
| 2026-05-09 08:14 | 49.71689 | 17.93786 | 35190 ft | 438 kts | 158° |
| 2026-05-09 08:15 | 49.66166 | 17.97929 | 35191 ft | 438 kts | 158° |
| 2026-05-09 08:15 | 49.60678 | 18.02048 | 35192 ft | 438 kts | 158° |
| 2026-05-09 08:16 | 49.55190 | 18.06151 | 35191 ft | 438 kts | 158° |
| 2026-05-09 08:16 | 49.49638 | 18.10001 | 35188 ft | 437 kts | 161° |
| 2026-05-09 08:17 | 49.44014 | 18.13515 | 35168 ft | 436 kts | 162° |
| 2026-05-09 08:17 | 49.38386 | 18.16998 | 35161 ft | 436 kts | 162° |
| 2026-05-09 08:18 | 49.32779 | 18.20560 | 35159 ft | 436 kts | 161° |
| 2026-05-09 08:18 | 49.27186 | 18.24146 | 35160 ft | 436 kts | 161° |
| 2026-05-09 08:19 | 49.21585 | 18.27710 | 35154 ft | 436 kts | 161° |
| 2026-05-09 08:19 | 49.15992 | 18.31261 | 35142 ft | 436 kts | 161° |
| 2026-05-09 08:20 | 49.10390 | 18.34799 | 35137 ft | 436 kts | 161° |
| 2026-05-09 08:20 | 49.04782 | 18.38329 | 35129 ft | 435 kts | 162° |
| 2026-05-09 08:21 | 48.99188 | 18.41851 | 35129 ft | 435 kts | 162° |
| 2026-05-09 08:21 | 48.93566 | 18.45392 | 35138 ft | 434 kts | 161° |
| 2026-05-09 08:22 | 48.87980 | 18.48887 | 35124 ft | 434 kts | 162° |
| 2026-05-09 08:22 | 48.82384 | 18.52374 | 35123 ft | 435 kts | 162° |
| 2026-05-09 08:23 | 48.76777 | 18.55865 | 35122 ft | 435 kts | 162° |
| 2026-05-09 08:23 | 48.71177 | 18.59342 | 35109 ft | 435 kts | 162° |
| 2026-05-09 08:24 | 48.65545 | 18.62836 | 35117 ft | 434 kts | 162° |
| 2026-05-09 08:24 | 48.59953 | 18.66296 | 35116 ft | 434 kts | 162° |
| 2026-05-09 08:25 | 48.54362 | 18.69759 | 35111 ft | 434 kts | 162° |
| 2026-05-09 08:25 | 48.48764 | 18.73201 | 35113 ft | 434 kts | 162° |
| 2026-05-09 08:26 | 48.43173 | 18.76628 | 35113 ft | 434 kts | 162° |
| 2026-05-09 08:26 | 48.37579 | 18.80060 | 35089 ft | 435 kts | 162° |
| 2026-05-09 08:27 | 48.31977 | 18.83484 | 35090 ft | 435 kts | 162° |
| 2026-05-09 08:27 | 48.26371 | 18.86910 | 35096 ft | 434 kts | 162° |
| 2026-05-09 08:28 | 48.20795 | 18.90301 | 35106 ft | 434 kts | 162° |
| 2026-05-09 08:28 | 48.15190 | 18.93698 | 35091 ft | 435 kts | 162° |
| 2026-05-09 08:29 | 48.09569 | 18.97109 | 35087 ft | 436 kts | 162° |
| 2026-05-09 08:29 | 48.03936 | 19.00515 | 35089 ft | 437 kts | 162° |
| 2026-05-09 08:30 | 47.98295 | 19.03906 | 35084 ft | 437 kts | 162° |
| 2026-05-09 08:30 | 47.92651 | 19.07288 | 35104 ft | 437 kts | 162° |
| 2026-05-09 08:31 | 47.86964 | 19.10703 | 35090 ft | 438 kts | 162° |
| 2026-05-09 08:31 | 47.81308 | 19.14090 | 35092 ft | 439 kts | 162° |
| 2026-05-09 08:32 | 47.75598 | 19.17498 | 35095 ft | 439 kts | 162° |
| 2026-05-09 08:33 | 47.67076 | 19.22563 | 35093 ft | 440 kts | 162° |
| 2026-05-09 08:33 | 47.61389 | 19.25943 | 35088 ft | 441 kts | 162° |
| 2026-05-09 08:34 | 47.56650 | 19.28751 | 35095 ft | 441 kts | 162° |
| 2026-05-09 08:34 | 47.50943 | 19.32136 | 35105 ft | 441 kts | 162° |
| 2026-05-09 08:35 | 47.45231 | 19.35509 | 35109 ft | 441 kts | 162° |
| 2026-05-09 08:35 | 47.39523 | 19.38861 | 35098 ft | 442 kts | 162° |
| 2026-05-09 08:36 | 47.33794 | 19.42215 | 35098 ft | 444 kts | 162° |
| 2026-05-09 08:36 | 47.28053 | 19.45573 | 35097 ft | 443 kts | 162° |
| 2026-05-09 08:37 | 47.22322 | 19.48925 | 35109 ft | 443 kts | 162° |
| 2026-05-09 08:37 | 47.16601 | 19.52256 | 35114 ft | 442 kts | 162° |
| 2026-05-09 08:38 | 47.10837 | 19.55600 | 35120 ft | 442 kts | 162° |
| 2026-05-09 08:38 | 47.05160 | 19.58887 | 35116 ft | 442 kts | 162° |
| 2026-05-09 08:39 | 46.99438 | 19.62192 | 35114 ft | 441 kts | 162° |
| 2026-05-09 08:39 | 46.93703 | 19.65513 | 35119 ft | 439 kts | 162° |
| 2026-05-09 08:40 | 46.88018 | 19.68795 | 35118 ft | 439 kts | 162° |
| 2026-05-09 08:40 | 46.82338 | 19.72054 | 35115 ft | 439 kts | 162° |
| 2026-05-09 08:41 | 46.76656 | 19.75307 | 35111 ft | 439 kts | 162° |
| 2026-05-09 08:41 | 46.70932 | 19.78580 | 35106 ft | 439 kts | 162° |
| 2026-05-09 08:42 | 46.65253 | 19.81823 | 35068 ft | 440 kts | 162° |
| 2026-05-09 08:42 | 46.59294 | 19.85221 | 35093 ft | 440 kts | 162° |
| 2026-05-09 08:43 | 46.53747 | 19.88383 | 35097 ft | 440 kts | 162° |
| 2026-05-09 08:43 | 46.48037 | 19.91581 | 35092 ft | 439 kts | 163° |
| 2026-05-09 08:44 | 46.42272 | 19.94529 | 35082 ft | 439 kts | 165° |
| 2026-05-09 08:44 | 46.36433 | 19.97394 | 35064 ft | 441 kts | 165° |
| 2026-05-09 08:45 | 46.30624 | 20.00282 | 35068 ft | 442 kts | 164° |
| 2026-05-09 08:45 | 46.24807 | 20.03216 | 35071 ft | 442 kts | 164° |
| 2026-05-09 08:46 | 46.18941 | 20.06171 | 35067 ft | 448 kts | 164° |
| 2026-05-09 08:46 | 46.15983 | 20.07649 | 35231 ft | 453 kts | 164° |
| 2026-05-09 08:46 | 46.13001 | 20.09140 | 35507 ft | 454 kts | 164° |
| 2026-05-09 08:46 | 46.10014 | 20.10634 | 35848 ft | 454 kts | 164° |
| 2026-05-09 08:47 | 46.07051 | 20.12113 | 36216 ft | 453 kts | 164° |
| 2026-05-09 08:47 | 46.04079 | 20.13596 | 36566 ft | 452 kts | 164° |
| 2026-05-09 08:47 | 46.01109 | 20.15077 | 36924 ft | 451 kts | 164° |
| 2026-05-09 08:47 | 45.98144 | 20.16553 | 37084 ft | 451 kts | 164° |
| 2026-05-09 08:48 | 45.95182 | 20.18025 | 37082 ft | 450 kts | 164° |
| 2026-05-09 08:48 | 45.89266 | 20.20960 | 37086 ft | 449 kts | 164° |
| 2026-05-09 08:49 | 45.83353 | 20.23890 | 37072 ft | 449 kts | 164° |
| 2026-05-09 08:49 | 45.77447 | 20.26804 | 37077 ft | 449 kts | 164° |
| 2026-05-09 08:50 | 45.71529 | 20.29706 | 37078 ft | 451 kts | 164° |
| 2026-05-09 08:50 | 45.65597 | 20.32620 | 37079 ft | 451 kts | 164° |
| 2026-05-09 08:51 | 45.59666 | 20.35533 | 37083 ft | 451 kts | 164° |
| 2026-05-09 08:51 | 45.53737 | 20.38444 | 37091 ft | 450 kts | 164° |
| 2026-05-09 08:52 | 45.47770 | 20.41364 | 37076 ft | 450 kts | 164° |
| 2026-05-09 08:52 | 45.41841 | 20.44257 | 37081 ft | 451 kts | 164° |
| 2026-05-09 08:53 | 45.35906 | 20.47137 | 37082 ft | 451 kts | 164° |
| 2026-05-09 08:53 | 45.29971 | 20.50016 | 37075 ft | 451 kts | 164° |
| 2026-05-09 08:54 | 45.24030 | 20.52894 | 37082 ft | 451 kts | 164° |
| 2026-05-09 08:54 | 45.18088 | 20.55758 | 37088 ft | 451 kts | 164° |
| 2026-05-09 08:55 | 45.12148 | 20.58618 | 37091 ft | 451 kts | 164° |
| 2026-05-09 08:55 | 45.06248 | 20.61457 | 37079 ft | 451 kts | 164° |
| 2026-05-09 08:56 | 45.00261 | 20.64327 | 37077 ft | 452 kts | 164° |
| 2026-05-09 08:56 | 44.94304 | 20.67175 | 37086 ft | 452 kts | 164° |
| 2026-05-09 08:57 | 44.88350 | 20.70021 | 37094 ft | 452 kts | 164° |
| 2026-05-09 08:57 | 44.82396 | 20.72864 | 37098 ft | 451 kts | 164° |
| 2026-05-09 08:58 | 44.76448 | 20.75698 | 37102 ft | 451 kts | 164° |
| 2026-05-09 08:58 | 44.70501 | 20.78537 | 37101 ft | 451 kts | 163° |
| 2026-05-09 08:59 | 44.64600 | 20.81606 | 37101 ft | 452 kts | 162° |
| 2026-05-09 08:59 | 44.58774 | 20.84780 | 37090 ft | 452 kts | 162° |
| 2026-05-09 09:00 | 44.53859 | 20.87428 | 37073 ft | 452 kts | 162° |
| 2026-05-09 09:00 | 44.47968 | 20.90533 | 37097 ft | 452 kts | 162° |
| 2026-05-09 09:01 | 44.42078 | 20.93611 | 37102 ft | 452 kts | 162° |
| 2026-05-09 09:01 | 44.36176 | 20.96698 | 37088 ft | 453 kts | 162° |
| 2026-05-09 09:02 | 44.30276 | 20.99789 | 37098 ft | 453 kts | 162° |
| 2026-05-09 09:02 | 44.24370 | 21.02868 | 37101 ft | 453 kts | 162° |
| 2026-05-09 09:03 | 44.18472 | 21.05942 | 37086 ft | 453 kts | 162° |
| 2026-05-09 09:03 | 44.12570 | 21.09017 | 37083 ft | 453 kts | 162° |
| 2026-05-09 09:04 | 44.06659 | 21.12080 | 37095 ft | 453 kts | 162° |
| 2026-05-09 09:04 | 44.00744 | 21.15142 | 37104 ft | 454 kts | 162° |
| 2026-05-09 09:05 | 43.94833 | 21.18198 | 37090 ft | 453 kts | 163° |
| 2026-05-09 09:05 | 43.88917 | 21.21243 | 37100 ft | 453 kts | 163° |
| 2026-05-09 09:06 | 43.82998 | 21.24285 | 37103 ft | 453 kts | 163° |
| 2026-05-09 09:06 | 43.77083 | 21.27323 | 37103 ft | 453 kts | 163° |
| 2026-05-09 09:07 | 43.71171 | 21.30342 | 37097 ft | 453 kts | 163° |
| 2026-05-09 09:07 | 43.65252 | 21.33362 | 37111 ft | 453 kts | 163° |
| 2026-05-09 09:08 | 43.59340 | 21.36382 | 37106 ft | 453 kts | 163° |
| 2026-05-09 09:08 | 43.53428 | 21.39398 | 37109 ft | 453 kts | 163° |
| 2026-05-09 09:09 | 43.47516 | 21.42394 | 37101 ft | 453 kts | 162° |
| 2026-05-09 09:09 | 43.41597 | 21.45396 | 37102 ft | 453 kts | 162° |
| 2026-05-09 09:10 | 43.35681 | 21.48392 | 37102 ft | 453 kts | 162° |
| 2026-05-09 09:10 | 43.29762 | 21.51378 | 37105 ft | 453 kts | 162° |
| 2026-05-09 09:11 | 43.23844 | 21.54351 | 37106 ft | 453 kts | 162° |
| 2026-05-09 09:11 | 43.17930 | 21.57324 | 37104 ft | 452 kts | 162° |
| 2026-05-09 09:12 | 43.11982 | 21.60301 | 37099 ft | 452 kts | 162° |
| 2026-05-09 09:12 | 43.06113 | 21.63234 | 37084 ft | 452 kts | 162° |
| 2026-05-09 09:13 | 43.00170 | 21.66209 | 37084 ft | 452 kts | 162° |
| 2026-05-09 09:13 | 42.94255 | 21.69157 | 37091 ft | 453 kts | 163° |
| 2026-05-09 09:14 | 42.88306 | 21.71968 | 37072 ft | 452 kts | 164° |
| 2026-05-09 09:14 | 42.82350 | 21.74707 | 37077 ft | 452 kts | 164° |
| 2026-05-09 09:15 | 42.76392 | 21.77464 | 37087 ft | 453 kts | 163° |
| 2026-05-09 09:15 | 42.70423 | 21.80241 | 37092 ft | 453 kts | 163° |
| 2026-05-09 09:16 | 42.64474 | 21.83009 | 37090 ft | 451 kts | 163° |
| 2026-05-09 09:16 | 42.55565 | 21.87143 | 37085 ft | 451 kts | 163° |
| 2026-05-09 09:17 | 42.49621 | 21.89906 | 37089 ft | 451 kts | 163° |
| 2026-05-09 09:17 | 42.43685 | 21.92653 | 37074 ft | 452 kts | 163° |
| 2026-05-09 09:18 | 42.37731 | 21.95391 | 37070 ft | 452 kts | 163° |
| 2026-05-09 09:18 | 42.31775 | 21.98123 | 37082 ft | 452 kts | 163° |
| 2026-05-09 09:19 | 42.25812 | 22.00860 | 37076 ft | 452 kts | 163° |
| 2026-05-09 09:19 | 42.19952 | 22.03543 | 37020 ft | 451 kts | 163° |
| 2026-05-09 09:20 | 42.17044 | 22.04876 | 36757 ft | 443 kts | 163° |
| 2026-05-09 09:20 | 42.14097 | 22.06228 | 36349 ft | 438 kts | 163° |
| 2026-05-09 09:20 | 42.11255 | 22.07527 | 35828 ft | 437 kts | 163° |
| 2026-05-09 09:20 | 42.08359 | 22.08846 | 35110 ft | 440 kts | 163° |
| 2026-05-09 09:21 | 42.05472 | 22.10160 | 34652 ft | 437 kts | 163° |
| 2026-05-09 09:21 | 42.02587 | 22.11473 | 34147 ft | 436 kts | 163° |
| 2026-05-09 09:21 | 41.99756 | 22.12759 | 33541 ft | 435 kts | 163° |
| 2026-05-09 09:21 | 41.96894 | 22.14061 | 33133 ft | 432 kts | 163° |
| 2026-05-09 09:22 | 41.91171 | 22.16659 | 33070 ft | 436 kts | 163° |
| 2026-05-09 09:22 | 41.85418 | 22.19258 | 33073 ft | 436 kts | 163° |
| 2026-05-09 09:23 | 41.79662 | 22.21855 | 33072 ft | 436 kts | 163° |
| 2026-05-09 09:23 | 41.73903 | 22.24456 | 33075 ft | 436 kts | 163° |
| 2026-05-09 09:24 | 41.68146 | 22.27054 | 33072 ft | 436 kts | 163° |
| 2026-05-09 09:24 | 41.62353 | 22.29664 | 33074 ft | 436 kts | 163° |
| 2026-05-09 09:25 | 41.56594 | 22.32247 | 33065 ft | 437 kts | 163° |
| 2026-05-09 09:25 | 41.50831 | 22.34818 | 33067 ft | 437 kts | 164° |
| 2026-05-09 09:26 | 41.45062 | 22.37389 | 33062 ft | 437 kts | 163° |
| 2026-05-09 09:26 | 41.39296 | 22.39966 | 33052 ft | 437 kts | 163° |
| 2026-05-09 09:27 | 41.33490 | 22.42545 | 33055 ft | 437 kts | 164° |
| 2026-05-09 09:27 | 41.27721 | 22.45097 | 33055 ft | 437 kts | 164° |
| 2026-05-09 09:28 | 41.21961 | 22.47706 | 33054 ft | 438 kts | 159° |
| 2026-05-09 09:28 | 41.16367 | 22.50932 | 33052 ft | 438 kts | 159° |
| 2026-05-09 09:29 | 41.10776 | 22.54166 | 33048 ft | 439 kts | 159° |
| 2026-05-09 09:29 | 41.05171 | 22.57391 | 33042 ft | 439 kts | 159° |
| 2026-05-09 09:30 | 40.99558 | 22.60608 | 33052 ft | 439 kts | 159° |
| 2026-05-09 09:30 | 40.93906 | 22.63846 | 33040 ft | 439 kts | 159° |
| 2026-05-09 09:31 | 40.88296 | 22.67055 | 33035 ft | 440 kts | 159° |
| 2026-05-09 09:32 | 40.80732 | 22.71369 | 33034 ft | 441 kts | 159° |
| 2026-05-09 09:32 | 40.75086 | 22.74573 | 33041 ft | 441 kts | 159° |
| 2026-05-09 09:33 | 40.69442 | 22.77776 | 33023 ft | 442 kts | 159° |
| 2026-05-09 09:33 | 40.63788 | 22.80978 | 33033 ft | 443 kts | 159° |
| 2026-05-09 09:34 | 40.58128 | 22.84189 | 33044 ft | 443 kts | 159° |
| 2026-05-09 09:34 | 40.52414 | 22.87415 | 33058 ft | 455 kts | 160° |
| 2026-05-09 09:36 | 40.31846 | 22.98997 | 28108 ft | 429 kts | 160° |
| 2026-05-09 09:36 | 40.29117 | 23.00526 | 27563 ft | 425 kts | 160° |
| 2026-05-09 09:36 | 40.26408 | 23.02038 | 27041 ft | 421 kts | 160° |
| 2026-05-09 09:37 | 40.23734 | 23.03529 | 26523 ft | 417 kts | 160° |
| 2026-05-09 09:37 | 40.21072 | 23.05014 | 26028 ft | 413 kts | 161° |
| 2026-05-09 09:37 | 40.18444 | 23.06477 | 25540 ft | 409 kts | 161° |
| 2026-05-09 09:37 | 40.15836 | 23.07931 | 25062 ft | 405 kts | 161° |
| 2026-05-09 09:38 | 40.13256 | 23.09367 | 24589 ft | 401 kts | 161° |
| 2026-05-09 09:38 | 40.10696 | 23.10790 | 24114 ft | 398 kts | 160° |
| 2026-05-09 09:38 | 40.08159 | 23.12203 | 23645 ft | 395 kts | 160° |
| 2026-05-09 09:38 | 40.05647 | 23.13602 | 23122 ft | 391 kts | 161° |
| 2026-05-09 09:39 | 40.03160 | 23.14985 | 22641 ft | 386 kts | 161° |
| 2026-05-09 09:39 | 40.00700 | 23.16350 | 22170 ft | 382 kts | 161° |
| 2026-05-09 09:39 | 39.98279 | 23.17694 | 21695 ft | 378 kts | 161° |
| 2026-05-09 09:39 | 39.95834 | 23.19048 | 21223 ft | 375 kts | 161° |
| 2026-05-09 09:40 | 39.93466 | 23.20355 | 20749 ft | 373 kts | 161° |
| 2026-05-09 09:40 | 39.91055 | 23.21684 | 20273 ft | 371 kts | 161° |
| 2026-05-09 09:40 | 39.88686 | 23.22992 | 19797 ft | 369 kts | 161° |
| 2026-05-09 09:40 | 39.86303 | 23.24312 | 19319 ft | 368 kts | 161° |
| 2026-05-09 09:41 | 39.83979 | 23.25599 | 18855 ft | 366 kts | 161° |
| 2026-05-09 09:41 | 39.81640 | 23.26891 | 18386 ft | 365 kts | 162° |
| 2026-05-09 09:41 | 39.79307 | 23.28177 | 17878 ft | 363 kts | 162° |
| 2026-05-09 09:41 | 39.76994 | 23.29451 | 17405 ft | 359 kts | 162° |
| 2026-05-09 09:42 | 39.74701 | 23.30716 | 16961 ft | 356 kts | 162° |
| 2026-05-09 09:42 | 39.72428 | 23.31966 | 16517 ft | 353 kts | 162° |
| 2026-05-09 09:42 | 39.70171 | 23.33204 | 16070 ft | 351 kts | 162° |
| 2026-05-09 09:42 | 39.67932 | 23.34431 | 15633 ft | 348 kts | 162° |
| 2026-05-09 09:43 | 39.65705 | 23.35650 | 15200 ft | 346 kts | 162° |
| 2026-05-09 09:43 | 39.63492 | 23.36860 | 14761 ft | 344 kts | 161° |
| 2026-05-09 09:43 | 39.61291 | 23.38066 | 14332 ft | 342 kts | 161° |
| 2026-05-09 09:43 | 39.59105 | 23.39266 | 13896 ft | 341 kts | 161° |
| 2026-05-09 09:44 | 39.56952 | 23.40446 | 13426 ft | 338 kts | 161° |
| 2026-05-09 09:44 | 39.54792 | 23.41628 | 12972 ft | 335 kts | 161° |
| 2026-05-09 09:44 | 39.52656 | 23.42799 | 12548 ft | 332 kts | 161° |
| 2026-05-09 09:44 | 39.50538 | 23.43958 | 12113 ft | 329 kts | 161° |
| 2026-05-09 09:45 | 39.48437 | 23.45105 | 11683 ft | 327 kts | 161° |
| 2026-05-09 09:45 | 39.46349 | 23.46243 | 11238 ft | 325 kts | 161° |
| 2026-05-09 09:45 | 39.44271 | 23.47373 | 10805 ft | 323 kts | 161° |
| 2026-05-09 09:45 | 39.42205 | 23.48498 | 10373 ft | 321 kts | 161° |
| 2026-05-09 09:46 | 39.40193 | 23.49596 | 10189 ft | 311 kts | 161° |
| 2026-05-09 09:46 | 39.38250 | 23.50659 | 10020 ft | 301 kts | 161° |
| 2026-05-09 09:46 | 39.36303 | 23.51721 | 9778 ft | 296 kts | 161° |
| 2026-05-09 09:46 | 39.34396 | 23.52755 | 9415 ft | 294 kts | 161° |
| 2026-05-09 09:47 | 39.32523 | 23.53768 | 9033 ft | 292 kts | 161° |
| 2026-05-09 09:47 | 39.30620 | 23.54798 | 8635 ft | 290 kts | 161° |
| 2026-05-09 09:47 | 39.28772 | 23.55800 | 8263 ft | 287 kts | 161° |
| 2026-05-09 09:47 | 39.26935 | 23.56796 | 7891 ft | 285 kts | 161° |
| 2026-05-09 09:48 | 39.25109 | 23.57784 | 7515 ft | 284 kts | 161° |
| 2026-05-09 09:48 | 39.23294 | 23.58764 | 7146 ft | 282 kts | 161° |
| 2026-05-09 09:48 | 39.21400 | 23.59786 | 6755 ft | 280 kts | 161° |
| 2026-05-09 09:48 | 39.19586 | 23.60647 | 6382 ft | 274 kts | 171° |
| 2026-05-09 09:49 | 39.17717 | 23.60805 | 6014 ft | 267 kts | 189° |
| 2026-05-09 09:49 | 39.15935 | 23.60203 | 5578 ft | 263 kts | 207° |
| 2026-05-09 09:49 | 39.14362 | 23.59173 | 5269 ft | 257 kts | 209° |
| 2026-05-09 09:49 | 39.13274 | 23.58460 | 5041 ft | 255 kts | 209° |
| 2026-05-09 09:50 | 39.11700 | 23.57434 | 4706 ft | 252 kts | 209° |
| 2026-05-09 09:50 | 39.09682 | 23.56122 | 4265 ft | 237 kts | 208° |
| 2026-05-09 09:50 | 39.08737 | 23.55509 | 4074 ft | 225 kts | 208° |
| 2026-05-09 09:50 | 39.07382 | 23.54629 | 3794 ft | 212 kts | 208° |
| 2026-05-09 09:51 | 39.06121 | 23.53810 | 3536 ft | 193 kts | 208° |
| 2026-05-09 09:51 | 39.04988 | 23.53074 | 3296 ft | 173 kts | 208° |
| 2026-05-09 09:51 | 39.03920 | 23.52378 | 2922 ft | 167 kts | 208° |
| 2026-05-09 09:51 | 39.02913 | 23.51693 | 2628 ft | 160 kts | 215° |
| 2026-05-09 09:52 | 39.02195 | 23.50619 | 2235 ft | 161 kts | 244° |
| 2026-05-09 09:52 | 39.01970 | 23.49219 | 1919 ft | 160 kts | 273° |
| 2026-05-09 09:52 | 39.02291 | 23.47851 | 1914 ft | 156 kts | 300° |
| 2026-05-09 09:52 | 39.03040 | 23.46877 | 1909 ft | 154 kts | 328° |
| 2026-05-09 09:53 | 39.04068 | 23.46461 | 1910 ft | 155 kts | 356° |
| 2026-05-09 09:53 | 39.05130 | 23.46656 | 1923 ft | 155 kts | 13° |
| 2026-05-09 09:53 | 39.06180 | 23.46963 | 1912 ft | 155 kts | 12° |
| 2026-05-09 09:53 | 39.07231 | 23.47269 | 1836 ft | 154 kts | 13° |
| 2026-05-09 09:54 | 39.08289 | 23.47574 | 1708 ft | 153 kts | 13° |
| 2026-05-09 09:54 | 39.09336 | 23.47877 | 1586 ft | 152 kts | 13° |
| 2026-05-09 09:54 | 39.10379 | 23.48046 | 1446 ft | 148 kts | 0° |
| 2026-05-09 09:54 | 39.11406 | 23.48032 | 1242 ft | 146 kts | 359° |
| 2026-05-09 09:55 | 39.12405 | 23.48028 | 969 ft | 142 kts | 4° |
| 2026-05-09 09:55 | 39.13346 | 23.48343 | 814 ft | 140 kts | 17° |
| 2026-05-09 09:55 | 39.14259 | 23.48750 | 692 ft | 138 kts | 21° |
| 2026-05-09 09:55 | 39.15176 | 23.49179 | 461 ft | 138 kts | 22° |
| 2026-05-09 09:56 | 39.16092 | 23.49629 | 241 ft | 140 kts | 22° |
| 2026-05-09 09:56 | 39.16990 | 23.50033 | 48 ft | 140 kts | 23° |
| 2026-05-09 09:56 | 39.17785 | 23.50401 | 38 ft | 87 kts | 19° |
| 2026-05-09 09:56 | 39.18111 | 23.50547 | 50 ft | 33 kts | 19° |
| 2026-05-09 09:57 | 39.18316 | 23.50637 | 51 ft | 22 kts | 19° |
| 2026-05-09 09:57 | 39.18424 | 23.50685 | 59 ft | 14 kts | 19° |
| 2026-05-09 09:57 | 39.18504 | 23.50699 | 55 ft | 8 kts | 33° |
| 2026-05-09 09:57 | 39.18496 | 23.50716 | 53 ft | 3 kts | 167° |
| 2026-05-09 09:58 | 39.18426 | 23.50685 | 61 ft | 18 kts | 200° |
| 2026-05-09 09:58 | 39.18288 | 23.50623 | 55 ft | 22 kts | 199° |
| 2026-05-09 09:58 | 39.18132 | 23.50554 | 51 ft | 26 kts | 199° |
| 2026-05-09 09:58 | 39.17983 | 23.50487 | 44 ft | 18 kts | 201° |
| 2026-05-09 09:59 | 39.17930 | 23.50404 | 42 ft | 7 kts | 249° |
| 2026-05-09 09:59 | 39.17910 | 23.50348 | 40 ft | 9 kts | 234° |
| 2026-05-09 09:59 | 39.17845 | 23.50307 | 39 ft | 9 kts | 199° |
| 2026-05-09 09:59 | 39.17788 | 23.50278 | 39 ft | 7 kts | 216° |
| 2026-05-09 10:00 | 39.17787 | 23.50240 | 39 ft | 0 kts | 291° |
| 2026-05-09 10:00 | 39.17793 | 23.50220 | 39 ft | 7 kts | 291° |
| 2026-05-09 10:00 | 39.17801 | 23.50193 | 39 ft | 2 kts | 289° |
| 2026-05-09 10:00 | 39.17802 | 23.50188 | 39 ft | 0 kts | 289° |